Time;durP1;ratioP1;P1;durP2;ratioP2;P2;SDS_P1;SDS_P2;PMS_P1;PMS_P2;Temp;Humidity;BMP_temperature;BMP_pressure;BME280_temperature;BME280_humidity;BME280_pressure;Samples;Min_cycle;Max_cycle;Signal;HPM_P1;HPM_P2
2022/08/10 00:00:28;;;;;;;1.30;1.00;;;;;;;19.10;100.00;102754.09;5074191;28;20075;-72
2022/08/10 00:02:58;;;;;;;0.98;0.88;;;;;;;19.01;100.00;102752.19;5072925;28;20040;-72
2022/08/10 00:05:25;;;;;;;1.38;0.88;;;;;;;19.08;100.00;102752.28;5074215;28;20021;-72
2022/08/10 00:07:50;;;;;;;1.40;0.98;;;;;;;18.92;100.00;102756.53;5074082;28;20086;-72
2022/08/10 00:10:18;;;;;;;1.80;1.02;;;;;;;18.82;100.00;102750.16;5074054;28;20021;-72
2022/08/10 00:12:44;;;;;;;0.90;0.90;;;;;;;18.83;100.00;102750.19;5074023;28;20032;-72
2022/08/10 00:15:12;;;;;;;1.65;1.10;;;;;;;18.77;100.00;102744.75;5072647;28;20081;-72
2022/08/10 00:17:37;;;;;;;2.13;1.15;;;;;;;18.79;100.00;102751.00;5073736;28;20028;-72
2022/08/10 00:20:04;;;;;;;1.25;1.05;;;;;;;18.81;100.00;102753.69;5073705;28;20025;-72
2022/08/10 00:22:29;;;;;;;1.15;1.05;;;;;;;18.85;100.00;102755.53;5073724;28;20048;-72
2022/08/10 00:24:56;;;;;;;1.30;1.10;;;;;;;18.76;100.00;102750.97;5079126;28;20466;-71
2022/08/10 00:27:26;;;;;;;2.72;1.10;;;;;;;18.68;100.00;102750.00;5093872;28;20055;-73
2022/08/10 00:29:53;;;;;;;1.35;1.10;;;;;;;18.73;100.00;102742.03;5093863;28;20027;-71
2022/08/10 00:32:18;;;;;;;1.00;1.00;;;;;;;18.66;100.00;102744.59;5093870;28;20031;-72
2022/08/10 00:34:47;;;;;;;3.15;1.27;;;;;;;18.58;100.00;102740.06;5093818;28;20028;-72
2022/08/10 00:37:13;;;;;;;2.47;1.05;;;;;;;18.57;100.00;102743.59;5093788;28;20028;-72
2022/08/10 00:39:39;;;;;;;1.20;1.10;;;;;;;18.45;100.00;102734.56;5093750;28;20024;-72
2022/08/10 00:42:08;;;;;;;1.40;1.10;;;;;;;18.48;100.00;102733.72;5093655;28;20460;-71
2022/08/10 00:44:39;;;;;;;1.85;1.35;;;;;;;18.39;100.00;102739.78;5092749;28;20475;-73
2022/08/10 00:47:06;;;;;;;1.30;1.13;;;;;;;18.46;100.00;102736.38;5075502;28;20016;-72
2022/08/10 00:49:31;;;;;;;1.10;1.00;;;;;;;18.42;100.00;102738.94;5093612;28;20035;-70
2022/08/10 00:51:57;;;;;;;1.42;1.33;;;;;;;18.60;100.00;102740.97;5093627;28;20536;-72
2022/08/10 00:54:23;;;;;;;1.58;1.30;;;;;;;18.67;100.00;102740.19;5092186;28;20028;-72
2022/08/10 00:56:48;;;;;;;2.47;1.00;;;;;;;18.57;100.00;102738.25;5073273;28;20020;-71
2022/08/10 00:59:13;;;;;;;3.10;0.90;;;;;;;18.57;100.00;102732.94;5073259;28;20059;-73
2022/08/10 01:01:39;;;;;;;2.67;1.10;;;;;;;18.64;100.00;102734.81;5073114;28;20028;-72
2022/08/10 01:04:06;;;;;;;1.60;1.15;;;;;;;18.50;100.00;102739.94;5071884;28;20028;-72
2022/08/10 01:06:50;;;;;;;4.53;1.38;;;;;;;18.51;100.00;102745.28;5073239;28;20052;-72
2022/08/10 01:09:45;;;;;;;1.48;1.10;;;;;;;18.49;100.00;102739.06;5073165;28;20081;-71
2022/08/10 01:12:29;;;;;;;1.05;0.98;;;;;;;18.41;100.00;102738.06;5072987;28;20027;-72
2022/08/10 01:15:03;;;;;;;1.92;1.45;;;;;;;18.18;100.00;102741.28;5071826;28;20063;-73
2022/08/10 01:18:04;;;;;;;2.35;1.10;;;;;;;18.08;100.00;102739.34;5073024;28;20024;-72
2022/08/10 01:21:26;;;;;;;1.38;1.27;;;;;;;18.01;100.00;102737.44;5049860;28;20045;-73
2022/08/10 01:24:29;;;;;;;1.38;1.20;;;;;;;18.02;100.00;102734.78;5014397;28;20049;-73
2022/08/10 01:27:23;;;;;;;2.20;1.63;;;;;;;18.04;100.00;102724.16;5011390;28;20033;-72
2022/08/10 01:29:49;;;;;;;2.00;1.40;;;;;;;18.05;100.00;102733.94;5048993;28;20036;-71
2022/08/10 01:32:23;;;;;;;2.65;1.67;;;;;;;17.91;100.00;102724.84;5052677;28;20048;-71
2022/08/10 01:34:53;;;;;;;3.70;1.60;;;;;;;17.92;100.00;102727.56;5052829;28;20032;-71
2022/08/10 01:37:23;;;;;;;4.95;2.65;;;;;;;17.76;100.00;102726.34;5052797;28;20100;-71
2022/08/10 01:39:54;;;;;;;2.10;1.50;;;;;;;17.77;100.00;102728.16;5052805;28;20025;-71
2022/08/10 01:42:22;;;;;;;1.95;1.55;;;;;;;17.94;100.00;102724.91;5068135;28;20056;-71
2022/08/10 01:45:01;;;;;;;1.60;1.48;;;;;;;17.91;100.00;102722.16;5052717;28;20103;-70
2022/08/10 01:50:27;;;;;;;3.30;1.67;;;;;;;17.80;100.00;102722.88;5052991;28;20095;-72
2022/08/10 01:53:14;;;;;;;2.08;1.60;;;;;;;17.78;100.00;102724.59;5052699;28;20465;-72
2022/08/10 01:55:41;;;;;;;2.40;1.85;;;;;;;17.65;100.00;102727.94;5065398;28;20056;-72
2022/08/10 01:58:09;;;;;;;4.00;1.65;;;;;;;17.64;100.00;102726.16;5076428;28;20020;-71
2022/08/10 02:00:38;;;;;;;3.08;1.70;;;;;;;17.68;100.00;102717.34;5076365;28;20380;-71
2022/08/10 02:03:06;;;;;;;2.65;1.88;;;;;;;17.62;100.00;102723.47;5076486;28;20024;-72
2022/08/10 02:05:36;;;;;;;2.28;1.67;;;;;;;17.49;100.00;102717.00;5076347;28;20055;-71
2022/08/10 02:08:04;;;;;;;6.13;3.03;;;;;;;17.48;100.00;102719.66;5076169;28;20388;-72
2022/08/10 02:10:31;;;;;;;1.80;1.70;;;;;;;17.59;100.00;102718.06;5075102;28;20057;-71
2022/08/10 02:12:57;;;;;;;2.53;1.63;;;;;;;17.49;100.00;102717.00;5076182;28;20039;-71
2022/08/10 02:15:26;;;;;;;3.05;1.80;;;;;;;17.59;100.00;102718.06;5076171;28;20043;-72
2022/08/10 02:17:56;;;;;;;2.72;1.90;;;;;;;17.52;100.00;102716.19;5076061;28;20032;-72
2022/08/10 02:20:24;;;;;;;2.92;1.98;;;;;;;17.52;100.00;102711.72;5076014;28;20021;-71
2022/08/10 02:23:18;;;;;;;2.13;1.92;;;;;;;17.45;100.00;102715.16;5076069;28;20103;-72
2022/08/10 02:25:45;;;;;;;4.32;2.00;;;;;;;17.46;100.00;102711.66;5068406;28;20040;-70
2022/08/10 02:28:15;;;;;;;1.92;1.73;;;;;;;17.41;100.00;102721.31;5075935;28;20419;-71
2022/08/10 02:30:41;;;;;;;2.28;1.88;;;;;;;17.34;100.00;102714.97;5075742;28;20021;-72
2022/08/10 02:33:08;;;;;;;2.30;1.70;;;;;;;17.29;100.00;102721.06;5074580;28;20090;-72
2022/08/10 02:35:35;;;;;;;3.08;2.22;;;;;;;17.29;100.00;102716.66;5075749;28;20059;-73
2022/08/10 02:38:06;;;;;;;2.28;1.77;;;;;;;17.15;100.00;102719.06;5075762;28;20024;-70
2022/08/10 02:40:40;;;;;;;2.35;1.90;;;;;;;17.31;100.00;102719.38;5075738;28;20382;-72
2022/08/10 02:43:27;;;;;;;2.97;1.90;;;;;;;17.31;100.00;102722.03;5075643;28;20020;-71
2022/08/10 02:45:59;;;;;;;3.08;2.00;;;;;;;17.32;100.00;102713.16;5075548;28;20105;-72
2022/08/10 02:48:50;;;;;;;6.18;2.40;;;;;;;17.31;100.00;102711.38;5075564;28;20028;-71
2022/08/10 02:51:22;;;;;;;1.92;1.80;;;;;;;17.10;100.00;102702.09;5075303;28;20545;-72
2022/08/10 02:53:58;;;;;;;3.58;2.20;;;;;;;17.08;100.00;102703.84;5074189;28;20058;-71
2022/08/10 02:56:26;;;;;;;2.10;1.90;;;;;;;17.07;100.00;102696.72;5075296;28;20076;-71
2022/08/10 02:58:56;;;;;;;2.80;2.38;;;;;;;17.06;100.00;102697.59;5075571;28;20042;-72
2022/08/10 03:01:26;;;;;;;8.45;2.42;;;;;;;17.09;100.00;102695.00;5075156;28;20119;-72
2022/08/10 03:04:20;;;;;;;3.55;2.10;;;;;;;17.08;100.00;102687.88;5075274;28;20388;-72
2022/08/10 03:06:53;;;;;;;2.47;2.28;;;;;;;17.07;100.00;102690.53;5055894;28;20487;-73
2022/08/10 03:09:20;;;;;;;3.42;2.17;;;;;;;17.06;100.00;102694.94;5075043;28;20395;-72
2022/08/10 03:11:47;;;;;;;3.83;1.80;;;;;;;17.05;100.00;102690.50;5075239;28;20017;-71
2022/08/10 03:14:13;;;;;;;3.42;2.38;;;;;;;16.98;100.00;102685.91;5075093;28;20032;-73
2022/08/10 03:16:40;;;;;;;3.42;2.45;;;;;;;16.93;100.00;102685.81;5075080;28;20024;-71
2022/08/10 03:19:08;;;;;;;2.33;2.13;;;;;;;16.95;100.00;102685.84;5074985;28;20025;-72
2022/08/10 03:21:34;;;;;;;10.18;2.50;;;;;;;16.89;100.00;102680.38;5074922;28;20067;-71
2022/08/10 03:24:02;;;;;;;6.13;2.50;;;;;;;16.89;100.00;102685.69;5074926;28;20051;-72
2022/08/10 03:26:32;;;;;;;3.00;2.20;;;;;;;16.94;100.00;102674.34;5074900;28;20032;-72
2022/08/10 03:28:59;;;;;;;4.22;2.13;;;;;;;17.03;100.00;102684.22;5073599;28;20514;-72
2022/08/10 03:31:26;;;;;;;4.57;2.60;;;;;;;17.03;100.00;102690.44;5073560;28;20074;-72
2022/08/10 03:33:53;;;;;;;2.53;2.33;;;;;;;16.97;100.00;102690.34;5074769;28;20547;-72
2022/08/10 03:36:18;;;;;;;4.78;2.38;;;;;;;16.88;100.00;102694.56;5074781;28;20112;-72
2022/08/10 03:38:47;;;;;;;10.23;3.00;;;;;;;16.77;100.00;102687.25;5073526;28;20060;-70
2022/08/10 03:41:15;;;;;;;5.88;2.85;;;;;;;16.73;100.00;102685.38;5074544;28;20414;-72
2022/08/10 03:43:43;;;;;;;4.18;2.60;;;;;;;16.72;100.00;102688.91;5074435;28;20095;-72
2022/08/10 03:46:12;;;;;;;2.80;2.60;;;;;;;16.71;100.00;102688.88;5074392;28;20028;-72
2022/08/10 03:48:39;;;;;;;3.88;2.65;;;;;;;16.65;100.00;102679.91;5074613;28;20024;-72
2022/08/10 03:51:06;;;;;;;2.67;2.45;;;;;;;16.66;100.00;102681.69;5074479;28;20021;-72
2022/08/10 03:53:34;;;;;;;3.85;2.60;;;;;;;16.77;100.00;102683.69;5073065;28;20131;-71
2022/08/10 03:56:01;;;;;;;6.07;3.10;;;;;;;16.77;100.00;102681.03;5074015;28;20178;-71
2022/08/10 03:58:27;;;;;;;3.42;2.75;;;;;;;16.88;100.00;102681.25;5074222;28;20095;-71
2022/08/10 04:00:54;;;;;;;4.60;2.88;;;;;;;16.86;100.00;102686.50;5074039;28;20020;-71
2022/08/10 04:03:19;;;;;;;4.20;3.03;;;;;;;16.89;100.00;102691.00;5074208;28;20031;-71
2022/08/10 04:05:45;;;;;;;4.20;2.90;;;;;;;16.81;100.00;102680.22;5074187;28;20032;-72
2022/08/10 04:08:11;;;;;;;4.07;3.22;;;;;;;16.71;100.00;102684.44;5074035;28;20031;-72
2022/08/10 04:10:36;;;;;;;4.28;3.30;;;;;;;16.72;100.00;102685.34;5073954;28;20107;-72
2022/08/10 04:13:01;;;;;;;3.08;2.70;;;;;;;16.67;100.00;102679.94;5073988;28;20020;-71
2022/08/10 04:15:27;;;;;;;4.53;3.50;;;;;;;16.73;100.00;102685.38;5074152;28;20024;-71
2022/08/10 04:17:52;;;;;;;4.10;3.17;;;;;;;16.75;100.00;102686.28;5073898;28;20082;-72
2022/08/10 04:20:28;;;;;;;3.78;3.10;;;;;;;16.75;100.00;102678.31;5073842;28;20036;-72
2022/08/10 04:22:58;;;;;;;7.75;3.25;;;;;;;16.73;100.00;102685.38;5073918;28;20115;-72
2022/08/10 04:25:24;;;;;;;4.22;3.53;;;;;;;16.65;100.00;102681.69;5073592;28;20025;-72
2022/08/10 04:27:50;;;;;;;5.70;3.38;;;;;;;16.69;100.00;102680.88;5073753;28;20098;-72
2022/08/10 04:30:16;;;;;;;5.45;3.13;;;;;;;16.67;100.00;102679.94;5073620;28;20020;-72
2022/08/10 04:32:45;;;;;;;6.35;3.50;;;;;;;16.69;100.00;102679.09;5073669;28;20028;-73
2022/08/10 04:35:15;;;;;;;9.38;5.15;;;;;;;16.68;100.00;102676.41;5073674;28;20028;-72
2022/08/10 04:37:42;;;;;;;7.55;4.32;;;;;;;16.65;100.00;102676.34;5073460;28;20024;-72
2022/08/10 04:40:08;;;;;;;6.80;3.78;;;;;;;16.59;100.00;102681.53;5073524;28;20027;-72
2022/08/10 04:42:34;;;;;;;5.05;3.75;;;;;;;16.54;100.00;102684.09;5073467;28;20036;-72
2022/08/10 04:44:59;;;;;;;4.63;3.55;;;;;;;16.56;100.00;102681.47;5073436;28;20025;-72
2022/08/10 04:47:24;;;;;;;6.47;4.10;;;;;;;16.56;100.00;102676.16;5073312;28;20039;-72
2022/08/10 04:49:50;;;;;;;5.63;3.85;;;;;;;16.61;100.00;102675.38;5073280;28;20028;-72
2022/08/10 04:52:16;;;;;;;4.68;3.85;;;;;;;16.72;100.00;102680.03;5073292;28;20031;-72
2022/08/10 04:54:41;;;;;;;4.65;4.05;;;;;;;16.65;100.00;102681.69;5073033;28;20078;-71
2022/08/10 04:57:06;;;;;;;8.57;4.20;;;;;;;16.70;100.00;102680.00;5073380;28;20024;-72
2022/08/10 04:59:32;;;;;;;4.50;4.05;;;;;;;16.72;100.00;102675.59;5073232;28;20024;-72
2022/08/10 05:01:57;;;;;;;5.28;4.35;;;;;;;16.66;100.00;102676.38;5071960;28;20028;-72
2022/08/10 05:04:22;;;;;;;5.70;4.35;;;;;;;16.78;100.00;102683.72;5073170;28;20029;-72
2022/08/10 05:06:48;;;;;;;8.35;4.70;;;;;;;16.67;100.00;102679.94;5073175;28;20443;-71
2022/08/10 05:09:13;;;;;;;8.40;4.28;;;;;;;16.75;100.00;102683.63;5073063;28;20059;-72
2022/08/10 05:11:38;;;;;;;5.95;3.72;;;;;;;16.73;100.00;102684.50;5073139;28;20380;-71
2022/08/10 05:14:04;;;;;;;5.65;4.22;;;;;;;16.69;100.00;102686.19;5073295;28;20032;-71
2022/08/10 05:16:29;;;;;;;7.28;4.80;;;;;;;16.79;100.00;102690.84;5073315;28;20051;-72
2022/08/10 05:18:54;;;;;;;5.30;3.92;;;;;;;16.80;100.00;102689.94;5073179;28;20055;-70
2022/08/10 05:21:20;;;;;;;7.88;4.50;;;;;;;16.79;100.00;102684.59;5073068;28;20020;-71
2022/08/10 05:23:45;;;;;;;5.95;4.40;;;;;;;16.80;100.00;102681.97;5073058;28;20025;-72
2022/08/10 05:26:11;;;;;;;5.75;4.55;;;;;;;16.80;100.00;102692.63;5072965;28;20032;-72
2022/08/10 05:28:36;;;;;;;5.88;4.40;;;;;;;16.79;100.00;102685.53;5072999;28;20020;-72
2022/08/10 05:31:01;;;;;;;6.60;5.03;;;;;;;16.81;100.00;102689.09;5074772;28;20028;-72
2022/08/10 05:33:27;;;;;;;6.82;5.20;;;;;;;16.82;100.00;102690.91;5077208;28;20020;-71
2022/08/10 05:35:52;;;;;;;7.35;4.38;;;;;;;16.80;100.00;102687.28;5077151;28;20028;-71
2022/08/10 05:38:19;;;;;;;5.75;4.35;;;;;;;16.86;100.00;102687.44;5076925;28;20149;-73
2022/08/10 05:40:46;;;;;;;8.13;4.68;;;;;;;16.92;100.00;102688.47;5076834;28;20373;-72
2022/08/10 05:43:13;;;;;;;7.93;4.93;;;;;;;16.96;100.00;102683.22;5076895;28;20025;-72
2022/08/10 05:45:38;;;;;;;7.28;5.10;;;;;;;17.04;100.00;102680.72;5076780;28;20086;-72
2022/08/10 05:48:03;;;;;;;6.90;5.15;;;;;;;17.11;100.00;102687.06;5076821;28;20028;-72
2022/08/10 05:50:33;;;;;;;7.70;5.55;;;;;;;17.18;100.00;102684.50;5076706;28;20081;-73
2022/08/10 05:52:59;;;;;;;8.90;5.15;;;;;;;17.21;100.00;102690.78;5076661;28;20151;-72
2022/08/10 05:55:28;;;;;;;10.60;5.10;;;;;;;17.25;100.00;102695.28;5076398;28;20127;-72
2022/08/10 05:57:54;;;;;;;7.00;5.47;;;;;;;17.27;100.00;102691.78;5076513;28;20028;-71
2022/08/10 06:00:20;;;;;;;8.65;5.68;;;;;;;17.30;100.00;102688.28;5076517;28;20031;-72
2022/08/10 06:02:53;;;;;;;10.40;6.10;;;;;;;17.29;100.00;102687.38;5076437;28;20117;-72
2022/08/10 06:05:23;;;;;;;14.57;6.90;;;;;;;17.39;100.00;102683.13;5076435;28;20032;-72
2022/08/10 06:07:58;;;;;;;7.30;5.55;;;;;;;17.46;100.00;102685.03;5076261;28;20066;-71
2022/08/10 06:10:24;;;;;;;11.93;6.18;;;;;;;17.51;100.00;102688.69;5076440;28;20460;-71
2022/08/10 06:14:59;;;;;;;7.88;5.57;;;;;;;17.51;100.00;102680.69;5076229;28;20035;-71
2022/08/10 06:15:39;;;;;;;10.13;6.05;;;;;;;17.62;100.00;102688.84;5076184;28;20036;-72
2022/08/10 06:18:05;;;;;;;11.07;6.20;;;;;;;17.62;100.00;102686.19;5076448;28;20024;-74
2022/08/10 06:20:31;;;;;;;8.15;5.45;;;;;;;17.61;100.00;102687.06;5076086;28;20073;-71
2022/08/10 06:23:02;;;;;;;7.97;5.07;;;;;;;17.74;100.00;102690.81;5076063;28;20029;-72
2022/08/10 06:25:29;;;;;;;8.82;5.75;;;;;;;17.81;100.00;102687.38;5085906;28;20031;-73
2022/08/10 06:27:56;;;;;;;7.90;5.07;;;;;;;17.89;100.00;102686.59;5096318;28;20395;-72
2022/08/10 06:30:23;;;;;;;6.30;5.15;;;;;;;17.97;100.00;102690.31;5096156;28;20131;-71
2022/08/10 06:32:51;;;;;;;8.85;5.35;;;;;;;18.02;100.00;102686.84;5096079;28;20031;-71
2022/08/10 06:35:17;;;;;;;8.40;5.65;;;;;;;18.07;100.00;102678.94;5096068;28;20050;-72
2022/08/10 06:37:44;;;;;;;9.07;5.50;;;;;;;18.12;100.00;102682.56;5096110;28;20050;-72
2022/08/10 06:40:11;;;;;;;6.72;4.78;;;;;;;18.20;100.00;102693.31;5095941;28;20038;-72
2022/08/10 06:42:40;;;;;;;9.95;4.85;;;;;;;18.24;100.00;102688.94;5094632;28;20055;-72
2022/08/10 06:45:05;;;;;;;7.40;4.32;;;;;;;18.27;100.00;102688.97;5095927;28;20059;-72
2022/08/10 06:47:48;;;;;;;8.35;5.55;;;;;;;18.34;100.00;102688.22;5095761;28;20105;-73
2022/08/10 06:50:29;;;;;;;7.35;4.88;;;;;;;18.38;100.00;102684.72;5095769;28;20039;-73
2022/08/10 06:52:57;;;;;;;8.13;4.60;;;;;;;18.44;100.00;102687.44;5095882;28;20514;-72
2022/08/10 06:55:23;;;;;;;8.23;5.20;;;;;;;18.47;100.00;102687.47;5085900;28;20055;-71
2022/08/10 06:57:51;;;;;;;8.18;5.00;;;;;;;18.56;100.00;102696.47;5075425;28;20115;-72
2022/08/10 07:00:18;;;;;;;7.40;4.70;;;;;;;18.60;100.00;102696.53;5075340;28;20025;-73
2022/08/10 07:02:50;;;;;;;8.65;5.03;;;;;;;18.66;100.00;102693.06;5075395;28;20024;-72
2022/08/10 07:05:21;;;;;;;8.93;4.85;;;;;;;18.75;100.00;102694.97;5075463;28;20030;-71
2022/08/10 07:07:49;;;;;;;7.32;4.57;;;;;;;18.86;100.00;102694.19;5075082;28;20036;-70
2022/08/10 07:10:20;;;;;;;9.07;4.47;;;;;;;18.96;100.00;102700.56;5075229;28;20021;-72
2022/08/10 07:12:51;;;;;;;7.65;5.30;;;;;;;18.96;100.00;102689.00;5075072;28;20123;-72
2022/08/10 07:15:18;;;;;;;9.85;4.80;;;;;;;19.09;100.00;102690.03;5075256;28;20100;-72
2022/08/10 07:17:45;;;;;;;6.80;5.00;;;;;;;19.10;100.00;102690.06;5075176;28;20112;-71
2022/08/10 07:20:15;;;;;;;9.20;5.25;;;;;;;19.11;100.00;102686.47;5075020;28;20024;-71
2022/08/10 07:22:42;;;;;;;7.90;4.45;;;;;;;19.13;100.00;102684.75;5074999;28;20021;-72
2022/08/10 07:25:11;;;;;;;9.10;5.07;;;;;;;19.13;100.00;102687.41;5082113;28;20491;-71
2022/08/10 07:27:38;;;;;;;6.65;4.65;;;;;;;19.15;100.00;102691.00;5095288;28;20081;-71
2022/08/10 07:30:04;;;;;;;6.03;4.10;;;;;;;19.21;100.00;102691.06;5095137;28;20047;-71
2022/08/10 07:32:32;;;;;;;7.15;5.05;;;;;;;19.27;100.00;102690.22;5095060;28;20050;-72
2022/08/10 07:35:00;;;;;;;8.00;4.38;;;;;;;19.33;100.00;102684.03;5094795;28;20020;-71
2022/08/10 07:37:28;;;;;;;7.22;4.65;;;;;;;19.40;100.00;102690.31;5094931;28;20028;-71
2022/08/10 07:39:54;;;;;;;7.95;4.97;;;;;;;19.39;100.00;102694.78;5094982;28;20568;-71
2022/08/10 07:42:23;;;;;;;9.90;4.53;;;;;;;19.46;100.00;102685.94;5094738;28;20059;-72
2022/08/10 07:44:51;;;;;;;10.55;4.53;;;;;;;19.50;100.00;102692.22;5094784;28;20024;-73
2022/08/10 07:47:25;;;;;;;8.07;4.32;;;;;;;19.58;100.00;102690.50;5094670;28;20027;-72
2022/08/10 07:49:55;;;;;;;5.05;3.90;;;;;;;19.64;100.00;102697.66;5094710;28;20035;-72
2022/08/10 07:52:21;;;;;;;9.00;4.20;;;;;;;19.75;100.00;102693.34;5094799;28;20020;-72
2022/08/10 07:54:49;;;;;;;8.18;4.20;;;;;;;19.85;100.00;102699.66;5089472;28;20496;-72
2022/08/10 07:57:36;;;;;;;7.75;4.07;;;;;;;19.93;100.00;102702.41;5073055;28;20373;-72
2022/08/10 08:00:08;;;;;;;8.57;3.95;;;;;;;20.05;100.00;102702.50;5074186;28;20384;-72
2022/08/10 08:02:45;;;;;;;5.10;4.15;;;;;;;20.18;100.00;102701.69;5056660;28;20048;-71
2022/08/10 08:05:13;;;;;;;5.88;4.13;;;;;;;20.35;100.00;102701.78;5074163;28;20091;-71
2022/08/10 08:07:40;;;;;;;7.75;3.97;;;;;;;20.43;100.00;102707.16;5073999;28;20030;-72
2022/08/10 08:10:10;;;;;;;6.82;3.95;;;;;;;20.52;100.00;102709.91;5074106;28;20055;-72
2022/08/10 08:12:37;;;;;;;4.85;4.35;;;;;;;20.64;100.00;102708.16;5073951;28;20069;-72
2022/08/10 08:15:04;;;;;;;7.38;4.40;;;;;;;20.74;100.00;102704.69;5074007;28;20439;-72
2022/08/10 08:17:33;;;;;;;5.25;4.25;;;;;;;20.85;100.00;102708.28;5073891;28;20420;-72
2022/08/10 08:19:59;;;;;;;8.52;3.80;;;;;;;21.01;100.00;102701.19;5072619;28;20021;-73
2022/08/10 08:22:26;;;;;;;4.60;3.60;;;;;;;21.10;100.00;102702.97;5073675;28;20027;-72
2022/08/10 08:24:55;;;;;;;7.05;4.30;;;;;;;21.16;100.00;102697.66;5078348;28;20019;-73
2022/08/10 08:27:22;;;;;;;6.10;3.42;;;;;;;21.29;100.00;102703.03;5093980;28;20027;-71
2022/08/10 08:29:50;;;;;;;5.07;3.20;;;;;;;21.43;100.00;102697.69;5093854;28;20074;-71
2022/08/10 08:32:21;;;;;;;5.03;3.53;;;;;;;21.55;100.00;102701.31;5093939;28;20024;-70
2022/08/10 08:34:48;;;;;;;3.97;3.25;;;;;;;21.67;100.00;102695.03;5093784;28;20023;-72
2022/08/10 08:37:15;;;;;;;7.10;3.70;;;;;;;21.74;100.00;102701.28;5093687;28;20028;-71
2022/08/10 08:39:41;;;;;;;6.20;3.40;;;;;;;21.89;100.00;102697.69;5093462;28;20020;-72
2022/08/10 08:42:43;;;;;;;7.10;3.55;;;;;;;22.04;100.00;102688.75;5093397;28;20032;-72
2022/08/10 08:45:30;;;;;;;3.90;2.63;;;;;;;22.16;100.00;102695.88;5093670;28;20020;-72
2022/08/10 08:48:14;;;;;;;5.63;2.33;;;;;;;22.21;100.00;102692.28;5093597;28;20027;-71
2022/08/10 08:50:57;;;;;;;4.55;2.50;;;;;;;22.32;100.00;102696.75;5093643;28;20042;-72
2022/08/10 08:53:44;;;;;;;4.10;2.00;;;;;;;22.47;100.00;102694.03;5093613;28;20110;-72
2022/08/10 08:56:39;;;;;;;7.65;2.10;;;;;;;22.62;100.00;102689.50;5077297;28;20522;-72
2022/08/10 08:59:29;;;;;;;5.03;2.15;;;;;;;22.73;100.00;102685.88;5073185;28;20028;-71
2022/08/10 09:02:06;;;;;;;3.25;1.83;;;;;;;22.92;100.00;102684.88;5073095;28;20028;-73
2022/08/10 09:04:56;;;;;;;2.95;2.25;;;;;;;23.15;100.00;102677.59;5072772;28;20037;-71
2022/08/10 09:07:37;;;;;;;3.00;1.88;;;;;;;23.32;100.00;102669.44;5065792;28;20369;-72
2022/08/10 09:10:19;;;;;;;3.88;1.67;;;;;;;23.52;100.00;102671.06;5073075;28;20032;-72
2022/08/10 09:13:10;;;;;;;24.48;2.08;;;;;;;23.63;100.00;102665.59;5072932;28;20024;-74
2022/08/10 09:15:55;;;;;;;5.25;1.63;;;;;;;23.79;98.26;102664.53;5073228;28;20035;-72
2022/08/10 09:18:36;;;;;;;2.78;1.20;;;;;;;24.00;90.11;102654.53;5073076;28;20503;-73
2022/08/10 09:21:22;;;;;;;3.10;1.10;;;;;;;24.15;91.52;102662.41;5072912;28;20031;-72
2022/08/10 09:24:00;;;;;;;2.35;1.40;;;;;;;24.34;89.93;102660.38;5073044;28;20405;-72
2022/08/10 09:26:40;;;;;;;5.45;1.70;;;;;;;24.49;92.61;102658.44;5090757;28;20047;-72
2022/08/10 09:29:10;;;;;;;4.13;2.20;;;;;;;24.64;90.77;102654.66;5093114;28;20368;-73
2022/08/10 09:32:06;;;;;;;5.68;1.88;;;;;;;24.73;90.86;102652.75;5093142;28;20020;-73
2022/08/10 09:34:48;;;;;;;5.28;1.73;;;;;;;24.92;91.51;102649.78;5089676;28;20427;-73
2022/08/10 09:37:22;;;;;;;4.75;1.73;;;;;;;25.07;85.07;102643.28;5093223;28;20035;-73
2022/08/10 09:39:56;;;;;;;5.05;1.58;;;;;;;25.20;83.81;102639.47;5093170;28;20215;-73
2022/08/10 09:42:36;;;;;;;5.47;1.70;;;;;;;25.35;82.13;102632.06;5093024;28;20034;-73
2022/08/10 09:45:19;;;;;;;5.50;1.13;;;;;;;25.45;78.35;102632.78;5093295;28;20024;-73
2022/08/10 09:48:08;;;;;;;2.25;1.20;;;;;;;25.67;77.67;102627.94;5091757;28;20028;-74
2022/08/10 09:50:55;;;;;;;4.18;1.23;;;;;;;25.85;76.82;102632.94;5092925;28;20024;-73
2022/08/10 09:53:32;;;;;;;3.63;1.13;;;;;;;25.90;72.92;102620.28;5092985;28;20383;-73
2022/08/10 09:56:12;;;;;;;2.28;0.90;;;;;;;26.00;71.47;102622.78;5078615;28;20098;-73
2022/08/10 09:58:59;;;;;;;4.03;1.13;;;;;;;26.13;73.90;102621.66;5072648;28;20074;-74
2022/08/10 10:01:36;;;;;;;1.80;0.90;;;;;;;26.33;71.18;102613.16;5072467;28;20021;-73
2022/08/10 10:04:17;;;;;;;3.13;0.90;;;;;;;26.49;71.39;102612.81;5072597;28;20024;-72
2022/08/10 10:06:48;;;;;;;1.92;1.10;;;;;;;26.65;67.90;102607.94;5072504;28;20025;-73
2022/08/10 10:09:22;;;;;;;1.67;0.98;;;;;;;26.76;66.01;102605.91;5072446;28;20020;-73
2022/08/10 10:11:56;;;;;;;2.97;1.00;;;;;;;26.92;67.09;102607.31;5072520;28;20025;-72
2022/08/10 10:17:58;;;;;;;3.88;1.00;;;;;;;27.18;64.92;102608.47;5074763;28;20035;-72
2022/08/10 10:20:43;;;;;;;2.65;1.17;;;;;;;27.21;61.20;102605.72;5076102;28;20074;-72
2022/08/10 10:23:30;;;;;;;3.15;0.90;;;;;;;27.33;62.63;102600.91;5076173;28;20472;-72
2022/08/10 10:26:17;;;;;;;6.28;1.10;;;;;;;27.46;60.55;102594.28;5089850;28;20051;-73
2022/08/10 10:29:07;;;;;;;3.92;1.70;;;;;;;27.56;61.79;102595.81;5096454;28;20552;-72
2022/08/10 10:31:42;;;;;;;4.25;1.05;;;;;;;27.69;59.36;102592.78;5096297;28;20096;-73
2022/08/10 10:34:38;;;;;;;2.10;1.00;;;;;;;27.83;57.58;102589.69;5096223;28;20020;-72
2022/08/10 10:37:06;;;;;;;1.67;0.82;;;;;;;27.96;55.43;102588.41;5096268;28;20024;-72
2022/08/10 10:39:33;;;;;;;1.83;1.00;;;;;;;28.13;56.25;102587.94;5096123;28;20028;-72
2022/08/10 10:42:07;;;;;;;1.10;0.90;;;;;;;28.21;56.15;102595.84;5096046;28;20378;-72
2022/08/10 10:45:04;;;;;;;2.00;0.90;;;;;;;28.35;53.67;102584.56;5096116;28;20379;-72
2022/08/10 10:48:07;;;;;;;3.28;0.90;;;;;;;28.54;54.85;102588.50;5095974;28;20089;-72
2022/08/10 10:50:51;;;;;;;1.00;0.85;;;;;;;28.74;49.66;102582.44;5095991;28;20028;-73
2022/08/10 10:53:17;;;;;;;1.85;0.88;;;;;;;28.77;47.27;102590.50;5096051;28;20032;-71
2022/08/10 10:56:18;;;;;;;8.07;0.95;;;;;;;28.81;44.99;102591.25;5083386;28;20424;-73
2022/08/10 10:58:51;;;;;;;1.70;0.80;;;;;;;28.98;48.01;102585.31;5075654;28;20468;-73
2022/08/10 11:01:27;;;;;;;2.67;0.80;;;;;;;29.01;46.15;102582.47;5075393;28;20464;-72
2022/08/10 11:03:55;;;;;;;5.15;0.90;;;;;;;29.11;48.63;102585.75;5075477;28;20424;-72
2022/08/10 11:06:50;;;;;;;5.07;0.93;;;;;;;29.32;46.75;102580.59;5075468;28;20476;-73
2022/08/10 11:09:24;;;;;;;2.67;1.00;;;;;;;29.44;44.23;102570.19;5075333;28;20048;-73
2022/08/10 11:11:55;;;;;;;1.83;0.90;;;;;;;29.49;45.04;102575.47;5075270;28;20013;-72
2022/08/10 11:14:38;;;;;;;1.13;0.80;;;;;;;29.60;44.65;102564.22;5075209;28;20029;-72
2022/08/10 11:17:47;;;;;;;2.25;0.70;;;;;;;29.78;39.62;102562.66;5075370;28;20058;-72
2022/08/10 11:20:36;;;;;;;1.25;1.02;;;;;;;29.95;41.95;102564.75;5033059;28;20121;-72
2022/08/10 11:23:04;;;;;;;2.40;0.80;;;;;;;30.13;42.99;102563.16;5033073;28;20042;-72
2022/08/10 11:25:31;;;;;;;3.20;1.13;;;;;;;30.33;43.42;102565.06;5071209;28;20123;-72
2022/08/10 11:28:03;;;;;;;3.72;1.23;;;;;;;30.39;43.84;102570.28;5094335;28;20391;-72
2022/08/10 11:30:53;;;;;;;3.80;1.17;;;;;;;30.59;43.86;102572.22;5095118;28;20024;-72
2022/08/10 11:33:30;;;;;;;6.10;1.10;;;;;;;30.61;45.86;102566.72;5095178;28;20028;-73
2022/08/10 11:36:02;;;;;;;1.77;0.90;;;;;;;30.98;45.91;102567.03;5095032;28;20081;-71
2022/08/10 11:38:46;;;;;;;14.03;1.50;;;;;;;31.20;46.42;102562.47;5095000;28;20028;-72
2022/08/10 11:41:39;;;;;;;3.42;1.20;;;;;;;31.52;45.50;102561.97;5094736;28;20294;-73
2022/08/10 11:44:10;;;;;;;;;;;;;;;31.68;44.66;102557.63;5095362;28;20020;-73
2022/08/10 11:46:46;;;;;;;3.53;1.40;;;;;;;31.89;44.36;102555.78;5094725;28;19946;-73
2022/08/10 11:49:44;;;;;;;4.60;1.63;;;;;;;31.98;44.05;102559.91;5094696;28;20031;-73